Time;durP1;ratioP1;P1;durP2;ratioP2;P2;SDS_P1;SDS_P2;PMS_P1;PMS_P2;Temp;Humidity;BMP_temperature;BMP_pressure;BME280_temperature;BME280_humidity;BME280_pressure;Samples;Min_cycle;Max_cycle;Signal;HPM_P1;HPM_P2
2022/08/22 00:00:24;;;;;;;6.90;1.98;;;20.20;99.90;;;;;;4215148;28;20684;-91
2022/08/22 00:02:38;;;;;;;13.07;2.63;;;20.10;99.90;;;;;;4215708;28;20166;-90
2022/08/22 00:04:54;;;;;;;10.85;2.45;;;20.00;99.90;;;;;;4215254;28;20173;-91
2022/08/22 00:07:33;;;;;;;11.80;2.30;;;20.00;99.90;;;;;;4215854;28;20182;-91
2022/08/22 00:09:59;;;;;;;13.43;2.42;;;20.00;99.90;;;;;;4191757;28;20237;-93
2022/08/22 00:12:08;;;;;;;7.88;2.53;;;19.90;99.90;;;;;;4198571;28;20187;-92
2022/08/22 00:14:30;;;;;;;9.60;2.20;;;19.90;99.90;;;;;;4215938;28;20634;-94
2022/08/22 00:17:01;;;;;;;10.18;2.50;;;20.00;99.90;;;;;;4215364;28;20193;-91
2022/08/22 00:19:23;;;;;;;15.30;3.25;;;20.10;99.90;;;;;;4177717;28;20926;-92
2022/08/22 00:22:03;;;;;;;16.40;2.72;;;20.30;99.90;;;;;;4214690;28;20244;-90
2022/08/22 00:24:23;;;;;;;12.02;2.83;;;20.30;99.90;;;;;;4198264;28;20273;-91
2022/08/22 00:26:39;;;;;;;15.68;2.28;;;20.20;99.90;;;;;;4198352;28;20209;-93
2022/08/22 00:28:46;;;;;;;13.75;2.38;;;20.20;99.90;;;;;;4198191;28;20198;-91
2022/08/22 00:31:17;;;;;;;17.30;2.63;;;20.10;99.90;;;;;;4198357;28;20166;-91
2022/08/22 00:34:12;;;;;;;13.45;2.53;;;20.10;99.90;;;;;;4196044;28;20607;-93
2022/08/22 00:36:30;;;;;;;12.55;2.83;;;20.20;99.90;;;;;;4155094;28;20195;-91
2022/08/22 00:38:37;;;;;;;10.38;2.60;;;20.20;99.90;;;;;;4195114;28;20199;-91
2022/08/22 00:40:56;;;;;;;10.05;2.35;;;20.20;99.90;;;;;;4218698;28;20213;-90
2022/08/22 00:43:09;;;;;;;8.25;2.28;;;20.20;99.90;;;;;;4216266;28;20170;-91
2022/08/22 00:45:15;;;;;;;15.35;2.90;;;20.10;99.90;;;;;;4214801;28;20181;-95
2022/08/22 00:47:35;;;;;;;9.35;2.28;;;20.10;99.90;;;;;;4215138;28;20174;-91
2022/08/22 00:49:42;;;;;;;9.43;2.45;;;20.10;99.90;;;;;;4214487;28;20201;-92
2022/08/22 00:52:17;;;;;;;16.42;2.63;;;20.10;99.90;;;;;;4214738;28;20174;-91
2022/08/22 00:54:45;;;;;;;9.85;2.60;;;20.10;99.90;;;;;;4214816;28;20178;-92
2022/08/22 00:57:07;;;;;;;10.93;2.25;;;20.10;99.90;;;;;;4214598;28;20162;-92
2022/08/22 00:59:26;;;;;;;16.35;3.03;;;20.00;99.90;;;;;;4214651;28;20299;-91
2022/08/22 01:01:33;;;;;;;11.88;3.00;;;20.00;99.90;;;;;;4214642;28;20201;-92
2022/08/22 01:03:45;;;;;;;9.55;2.67;;;20.00;99.90;;;;;;4214361;28;20527;-91
2022/08/22 01:06:01;;;;;;;16.05;2.70;;;20.00;99.90;;;;;;4214561;28;20178;-92
2022/08/22 01:08:17;;;;;;;19.45;2.95;;;19.90;99.90;;;;;;4214253;28;20174;-91
2022/08/22 01:10:42;;;;;;;15.23;3.03;;;19.90;99.90;;;;;;4214275;28;20228;-94
2022/08/22 01:13:22;;;;;;;10.05;2.30;;;20.00;99.90;;;;;;4214565;28;20219;-93
2022/08/22 01:15:26;;;;;;;9.82;2.40;;;20.10;99.90;;;;;;4211598;28;20235;-91
2022/08/22 01:17:43;;;;;;;15.10;2.85;;;20.10;99.90;;;;;;4214447;28;20170;-92
2022/08/22 01:20:21;;;;;;;12.30;2.90;;;20.10;99.90;;;;;;4214063;28;20189;-94
2022/08/22 01:22:52;;;;;;;14.90;2.75;;;20.30;99.90;;;;;;4214401;28;20185;-95
2022/08/22 01:25:17;;;;;;;16.10;3.10;;;20.20;99.90;;;;;;4214274;28;20262;-93
2022/08/22 01:27:47;;;;;;;13.88;2.50;;;20.10;99.90;;;;;;4214546;28;20182;-91
2022/08/22 01:29:54;;;;;;;12.32;2.72;;;19.90;99.90;;;;;;4215821;28;20680;-91
2022/08/22 01:32:18;;;;;;;10.23;2.42;;;19.70;99.90;;;;;;4214414;28;20182;-93
2022/08/22 01:34:52;;;;;;;19.42;2.50;;;19.50;99.90;;;;;;4224826;28;20174;-93
2022/08/22 01:36:56;;;;;;;10.13;2.40;;;19.30;99.90;;;;;;4230140;28;20192;-92
2022/08/22 01:39:05;;;;;;;10.35;2.58;;;19.20;99.90;;;;;;4217057;28;20198;-91
2022/08/22 01:41:30;;;;;;;11.40;2.00;;;19.00;99.90;;;;;;4222820;28;20681;-91
2022/08/22 01:43:30;;;;;;;18.90;2.78;;;19.20;99.90;;;;;;4228899;28;20174;-90
2022/08/22 01:45:48;;;;;;;14.75;2.72;;;19.60;99.90;;;;;;4205995;28;20181;-92
2022/08/22 01:47:57;;;;;;;9.02;2.92;;;20.00;99.90;;;;;;4201001;28;20175;-90
2022/08/22 01:50:10;;;;;;;15.48;2.75;;;20.30;99.90;;;;;;4217507;28;20189;-91
2022/08/22 01:52:11;;;;;;;7.90;2.20;;;20.40;99.90;;;;;;4217552;28;20185;-90
2022/08/22 01:54:24;;;;;;;8.00;2.30;;;20.40;99.90;;;;;;4217655;28;20555;-92
2022/08/22 01:56:30;;;;;;;13.55;2.67;;;20.40;99.90;;;;;;4217532;28;20169;-95
2022/08/22 01:58:34;;;;;;;16.88;3.03;;;20.10;99.90;;;;;;4200762;28;20209;-91
2022/08/22 02:00:50;;;;;;;11.75;2.47;;;20.20;99.90;;;;;;4217465;28;20585;-91
2022/08/22 02:03:25;;;;;;;9.60;2.40;;;20.40;99.90;;;;;;4217328;28;20177;-91
2022/08/22 02:05:45;;;;;;;10.48;2.40;;;20.50;99.90;;;;;;4217407;28;20170;-90
2022/08/22 02:08:24;;;;;;;13.48;2.67;;;20.50;99.90;;;;;;4217251;28;20228;-92
2022/08/22 02:10:39;;;;;;;10.45;2.63;;;20.40;99.90;;;;;;4195196;28;20186;-94
2022/08/22 02:12:40;;;;;;;10.13;2.67;;;20.30;99.90;;;;;;4216958;28;20205;-95
2022/08/22 02:14:51;;;;;;;11.18;2.83;;;20.40;99.90;;;;;;4200363;28;20225;-91
2022/08/22 02:17:14;;;;;;;15.50;2.63;;;20.20;99.90;;;;;;4200321;28;20672;-94
2022/08/22 02:19:15;;;;;;;13.10;2.47;;;19.90;99.90;;;;;;4200338;28;20199;-91
2022/08/22 02:21:39;;;;;;;16.27;2.13;;;19.60;99.90;;;;;;4200291;28;20210;-95
2022/08/22 02:24:00;;;;;;;9.93;2.78;;;19.60;99.90;;;;;;4217286;28;20170;-91
2022/08/22 02:26:00;;;;;;;12.43;2.35;;;19.60;99.90;;;;;;4216969;28;20248;-91
2022/08/22 02:28:09;;;;;;;11.25;2.28;;;19.50;99.90;;;;;;4200211;28;20179;-92
2022/08/22 02:30:22;;;;;;;8.25;2.20;;;19.50;99.90;;;;;;4200113;28;20175;-95
2022/08/22 02:32:41;;;;;;;9.40;2.10;;;19.60;99.90;;;;;;4216882;28;20661;-91
2022/08/22 02:34:54;;;;;;;11.80;2.83;;;19.70;99.90;;;;;;4216661;28;20331;-92
2022/08/22 02:37:01;;;;;;;12.98;2.85;;;19.50;99.90;;;;;;4216610;28;20241;-92
2022/08/22 02:39:32;;;;;;;10.90;2.30;;;19.40;99.90;;;;;;4216798;28;20214;-93
2022/08/22 02:41:48;;;;;;;11.13;2.75;;;19.40;99.90;;;;;;4216709;28;20210;-91
2022/08/22 02:44:01;;;;;;;10.70;2.45;;;19.30;99.90;;;;;;4216844;28;20166;-92
2022/08/22 02:46:34;;;;;;;10.05;2.63;;;19.40;99.90;;;;;;4216639;28;20192;-91
2022/08/22 02:48:43;;;;;;;7.75;2.35;;;19.40;99.90;;;;;;4216443;28;20232;-91
2022/08/22 02:50:55;;;;;;;9.60;2.53;;;19.40;99.90;;;;;;4216668;28;20178;-94
2022/08/22 02:53:07;;;;;;;7.88;2.25;;;19.50;99.90;;;;;;4216495;28;20185;-93
2022/08/22 02:55:18;;;;;;;8.90;2.20;;;19.50;99.90;;;;;;4215875;28;20173;-92
2022/08/22 02:57:31;;;;;;;8.30;2.38;;;19.60;99.90;;;;;;4215287;28;20193;-94
2022/08/22 02:59:57;;;;;;;13.38;2.22;;;19.60;99.90;;;;;;4216270;28;20193;-95
2022/08/22 03:02:26;;;;;;;12.43;2.38;;;19.60;99.90;;;;;;4216669;28;20268;-93
2022/08/22 03:04:30;;;;;;;11.38;3.05;;;19.60;99.90;;;;;;4216536;28;20495;-91
2022/08/22 03:06:36;;;;;;;11.05;2.80;;;19.90;99.90;;;;;;4216593;28;20167;-90
2022/08/22 03:08:40;;;;;;;16.50;2.80;;;20.40;99.90;;;;;;4216323;28;20197;-90
2022/08/22 03:10:53;;;;;;;11.25;2.60;;;20.70;99.90;;;;;;4216415;28;20181;-90
2022/08/22 03:12:54;;;;;;;10.35;2.53;;;20.40;99.90;;;;;;4216338;28;20174;-91
2022/08/22 03:15:02;;;;;;;9.45;2.50;;;20.20;99.90;;;;;;4216379;28;20166;-90
2022/08/22 03:17:12;;;;;;;12.82;2.58;;;20.00;99.90;;;;;;4216386;28;20701;-90
2022/08/22 03:19:30;;;;;;;9.85;2.80;;;19.90;99.90;;;;;;4216282;28;20260;-90
2022/08/22 03:21:35;;;;;;;13.18;2.47;;;19.90;99.90;;;;;;4216533;28;20221;-91
2022/08/22 03:23:42;;;;;;;10.30;2.40;;;19.80;99.90;;;;;;4216465;28;20205;-95
2022/08/22 03:26:11;;;;;;;8.77;2.53;;;19.80;99.90;;;;;;4216062;28;20209;-90
2022/08/22 03:28:20;;;;;;;7.53;2.53;;;19.80;99.90;;;;;;4198815;28;20731;-91
2022/08/22 03:30:33;;;;;;;7.28;2.05;;;19.70;99.90;;;;;;4216089;28;20223;-93
2022/08/22 03:32:57;;;;;;;9.43;2.80;;;19.70;99.90;;;;;;4216094;28;20170;-91
2022/08/22 03:35:07;;;;;;;9.10;2.17;;;19.70;99.90;;;;;;4216370;28;20181;-89
2022/08/22 03:37:39;;;;;;;8.32;2.58;;;19.60;99.90;;;;;;4216009;28;20177;-89
2022/08/22 03:39:40;;;;;;;15.45;2.88;;;19.70;99.90;;;;;;4215624;28;20202;-90
2022/08/22 03:42:10;;;;;;;8.45;2.28;;;19.70;99.90;;;;;;4199358;28;20208;-91
2022/08/22 03:44:29;;;;;;;13.93;2.60;;;19.70;99.90;;;;;;4191595;28;20594;-91
2022/08/22 03:46:48;;;;;;;7.30;2.33;;;19.70;99.90;;;;;;4218895;28;20178;-91
2022/08/22 03:49:11;;;;;;;10.32;2.55;;;19.70;99.90;;;;;;4219142;28;20194;-91
2022/08/22 03:51:30;;;;;;;11.18;2.55;;;19.70;99.90;;;;;;4217584;28;20181;-91
2022/08/22 03:54:02;;;;;;;11.68;2.42;;;19.60;99.90;;;;;;4216021;28;20181;-91
2022/08/22 03:56:33;;;;;;;12.95;2.80;;;19.70;99.90;;;;;;4215997;28;20175;-91
2022/08/22 03:58:52;;;;;;;16.13;2.95;;;19.60;99.90;;;;;;4215482;28;20334;-89
2022/08/22 04:01:12;;;;;;;13.13;3.08;;;19.50;99.90;;;;;;4215494;28;20206;-91
2022/08/22 04:03:38;;;;;;;14.43;2.78;;;19.40;99.90;;;;;;4215357;28;20174;-91
2022/08/22 04:05:57;;;;;;;11.77;3.28;;;19.50;99.90;;;;;;4217601;28;20181;-92
2022/08/22 04:08:16;;;;;;;10.32;2.28;;;19.60;99.90;;;;;;4217964;28;20170;-91
2022/08/22 04:11:03;;;;;;;7.57;2.47;;;19.70;99.90;;;;;;4215941;28;20178;-92
2022/08/22 04:13:22;;;;;;;12.80;2.85;;;19.80;99.90;;;;;;4217815;28;20190;-91
2022/08/22 04:15:41;;;;;;;10.48;2.88;;;19.50;99.90;;;;;;4218386;28;20185;-96
2022/08/22 04:17:58;;;;;;;10.13;2.55;;;19.20;99.90;;;;;;4216561;28;20170;-91
2022/08/22 04:20:32;;;;;;;10.65;2.70;;;18.80;99.90;;;;;;4201584;28;20174;-91
2022/08/22 04:22:58;;;;;;;13.80;2.75;;;18.70;99.90;;;;;;4199686;28;20178;-91
2022/08/22 04:25:07;;;;;;;7.50;2.47;;;18.70;99.90;;;;;;4200329;28;20167;-90
2022/08/22 04:27:17;;;;;;;10.52;2.95;;;18.70;99.90;;;;;;4199117;28;20655;-90
2022/08/22 04:29:41;;;;;;;12.82;3.15;;;18.80;99.90;;;;;;4215870;28;20611;-91
2022/08/22 04:31:55;;;;;;;15.80;2.67;;;18.90;99.90;;;;;;4216442;28;20253;-90
2022/08/22 04:34:02;;;;;;;13.68;2.55;;;18.90;99.90;;;;;;4200020;28;20191;-91
2022/08/22 04:36:21;;;;;;;11.50;2.70;;;19.00;99.90;;;;;;4198506;28;20174;-89
2022/08/22 04:38:38;;;;;;;10.70;3.08;;;19.00;99.90;;;;;;4199336;28;20218;-90
2022/08/22 04:40:47;;;;;;;11.75;2.58;;;19.10;99.90;;;;;;4200156;28;20203;-90
2022/08/22 04:43:00;;;;;;;12.00;3.00;;;19.10;99.90;;;;;;4198362;28;20174;-96
2022/08/22 04:45:04;;;;;;;10.52;2.88;;;19.30;99.90;;;;;;4199127;28;20178;-91
2022/08/22 04:47:12;;;;;;;13.23;3.10;;;19.40;99.90;;;;;;4214667;28;20170;-89
2022/08/22 04:49:19;;;;;;;16.77;2.97;;;19.90;99.90;;;;;;4217045;28;20197;-90
2022/08/22 04:51:34;;;;;;;9.02;2.75;;;20.30;99.90;;;;;;4216781;28;20224;-89
2022/08/22 04:53:59;;;;;;;7.72;2.67;;;20.50;99.90;;;;;;4215894;28;20210;-92
2022/08/22 04:56:14;;;;;;;13.77;3.22;;;20.50;99.90;;;;;;4233418;28;20170;-89
2022/08/22 04:58:51;;;;;;;8.77;3.28;;;20.40;99.90;;;;;;4216354;28;20190;-92
2022/08/22 05:01:13;;;;;;;14.02;3.10;;;20.30;99.90;;;;;;4216385;28;20243;-91
2022/08/22 05:03:17;;;;;;;13.10;3.25;;;20.10;99.90;;;;;;4215610;28;20227;-91
2022/08/22 05:05:31;;;;;;;14.65;3.25;;;20.00;99.90;;;;;;4217266;28;20174;-90
2022/08/22 05:07:37;;;;;;;10.73;2.95;;;19.90;99.90;;;;;;4207618;22;20303;-95
2022/08/22 05:09:43;;;;;;;7.07;2.30;;;19.90;99.90;;;;;;4165213;28;20208;-95
2022/08/22 05:11:49;;;;;;;16.20;3.05;;;19.90;99.90;;;;;;4165486;28;20722;-94
2022/08/22 05:13:55;;;;;;;16.00;2.80;;;19.90;99.90;;;;;;4152350;28;20173;-96
2022/08/22 05:16:02;;;;;;;10.27;2.80;;;19.80;99.90;;;;;;4152069;28;20671;-94
2022/08/22 05:18:11;;;;;;;14.80;3.17;;;19.70;99.90;;;;;;4153424;28;20180;-95
2022/08/22 05:20:18;;;;;;;15.85;3.13;;;19.60;99.90;;;;;;4150023;28;20200;-96
2022/08/22 05:22:24;;;;;;;7.90;3.03;;;19.40;99.90;;;;;;4150518;28;20636;-94
2022/08/22 05:24:33;;;;;;;9.15;2.88;;;19.20;99.90;;;;;;4153947;28;20200;-95
2022/08/22 05:26:56;;;;;;;16.08;3.10;;;19.00;99.90;;;;;;4167999;28;20266;-95
2022/08/22 05:29:01;;;;;;;12.15;2.63;;;19.00;99.90;;;;;;4152684;28;20193;-96
2022/08/22 05:31:07;;;;;;;9.57;2.50;;;19.00;99.90;;;;;;4151965;28;20177;-95
2022/08/22 05:33:25;;;;;;;11.48;2.75;;;19.00;99.90;;;;;;4152699;28;20176;-95
2022/08/22 05:35:35;;;;;;;11.70;2.75;;;18.90;99.90;;;;;;4151681;28;20176;-96
2022/08/22 05:37:35;;;;;;;17.38;3.03;;;19.10;99.90;;;;;;4150292;28;20165;-96
2022/08/22 05:39:40;;;;;;;11.73;2.80;;;19.30;99.90;;;;;;4168439;28;20215;-95
2022/08/22 05:41:41;;;;;;;15.38;3.22;;;19.40;99.90;;;;;;4149304;28;20204;-96
2022/08/22 05:43:43;;;;;;;17.38;3.15;;;19.50;99.90;;;;;;4151629;28;20177;-96
2022/08/22 05:45:45;;;;;;;13.85;3.80;;;19.60;99.90;;;;;;4171154;28;20176;-94
2022/08/22 05:48:04;;;;;;;14.20;3.30;;;19.50;99.90;;;;;;4172136;28;20702;-96
2022/08/22 05:50:14;;;;;;;15.98;2.95;;;19.40;99.90;;;;;;4155890;28;20173;-96
2022/08/22 05:52:40;;;;;;;13.95;3.17;;;19.30;99.90;;;;;;4154694;28;20184;-95
2022/08/22 05:54:57;;;;;;;10.52;3.22;;;19.30;99.90;;;;;;4170023;28;20196;-96
2022/08/22 05:57:04;;;;;;;21.00;3.47;;;19.40;99.90;;;;;;4155732;28;20185;-96
2022/08/22 05:59:28;;;;;;;10.63;3.15;;;19.60;99.90;;;;;;4158668;28;20189;-95
2022/08/22 06:01:36;;;;;;;13.43;3.13;;;19.80;99.90;;;;;;4172978;28;20317;-95
2022/08/22 06:03:44;;;;;;;8.43;3.17;;;19.90;99.90;;;;;;4154555;28;20240;-96
2022/08/22 06:05:50;;;;;;;13.10;3.60;;;19.90;99.90;;;;;;4154483;28;20255;-96
2022/08/22 06:08:01;;;;;;;17.45;3.70;;;19.90;99.90;;;;;;4152395;28;20188;-96
2022/08/22 06:10:05;;;;;;;14.93;3.15;;;19.90;99.90;;;;;;4156928;28;20187;-96
2022/08/22 06:12:20;;;;;;;14.70;3.50;;;19.80;99.90;;;;;;4156899;28;20169;-96
2022/08/22 06:14:55;;;;;;;9.70;3.10;;;19.50;99.90;;;;;;4160298;28;20172;-96
2022/08/22 06:17:20;;;;;;;17.48;3.55;;;19.70;99.90;;;;;;4169862;28;20184;-96
2022/08/22 06:19:22;;;;;;;18.38;3.78;;;20.00;99.90;;;;;;4152841;28;20199;-96
2022/08/22 06:21:36;;;;;;;14.50;3.10;;;20.10;99.90;;;;;;4154610;28;20288;-95
2022/08/22 06:23:58;;;;;;;18.05;3.45;;;20.10;99.90;;;;;;4171696;28;20168;-96
2022/08/22 06:26:00;;;;;;;14.02;3.40;;;20.00;99.90;;;;;;4158081;28;20687;-96
2022/08/22 06:28:08;;;;;;;19.35;3.30;;;19.90;99.90;;;;;;4159531;28;20174;-96
2022/08/22 06:30:13;;;;;;;16.60;3.42;;;20.20;99.90;;;;;;4160509;28;20180;-96
2022/08/22 06:32:19;;;;;;;19.40;3.58;;;20.70;99.90;;;;;;4176105;28;20632;-96
2022/08/22 06:34:28;;;;;;;18.02;3.65;;;20.90;99.90;;;;;;4158276;28;20185;-95
2022/08/22 06:36:34;;;;;;;12.73;3.35;;;21.10;99.90;;;;;;4174128;28;20172;-96
2022/08/22 06:39:09;;;;;;;19.75;3.67;;;21.30;99.90;;;;;;4175441;28;20275;-96
2022/08/22 06:41:10;;;;;;;14.02;3.83;;;21.30;99.90;;;;;;4155847;28;20215;-96
2022/08/22 06:43:12;;;;;;;12.70;3.67;;;21.40;99.90;;;;;;4141614;28;20211;-96
2022/08/22 06:45:17;;;;;;;14.10;3.47;;;21.30;99.90;;;;;;4171297;28;20211;-96
2022/08/22 06:47:29;;;;;;;16.73;3.75;;;21.20;99.90;;;;;;4152914;28;20181;-96
2022/08/22 06:49:34;;;;;;;15.07;3.85;;;21.20;99.90;;;;;;4154135;28;20203;-96
2022/08/22 06:51:37;;;;;;;18.42;4.03;;;21.20;99.90;;;;;;4154601;28;20179;-96
2022/08/22 06:53:49;;;;;;;13.23;2.85;;;21.20;99.90;;;;;;4155476;28;20165;-96
2022/08/22 06:55:54;;;;;;;18.13;3.85;;;21.20;99.90;;;;;;4155975;28;20180;-96
2022/08/22 06:58:05;;;;;;;12.38;3.10;;;21.20;99.90;;;;;;4174199;28;20196;-96
2022/08/22 07:00:11;;;;;;;17.63;3.05;;;21.20;99.90;;;;;;4160830;28;20193;-96
2022/08/22 07:02:20;;;;;;;15.38;3.63;;;20.90;99.90;;;;;;4141862;28;20185;-96
2022/08/22 07:04:25;;;;;;;18.38;3.90;;;20.70;99.90;;;;;;4175829;28;20243;-96
2022/08/22 07:06:35;;;;;;;15.25;3.25;;;20.70;99.90;;;;;;4170700;28;20180;-96
2022/08/22 07:08:36;;;;;;;15.75;3.80;;;20.70;99.90;;;;;;4171142;28;20223;-96
2022/08/22 07:10:57;;;;;;;13.35;3.22;;;20.90;99.90;;;;;;4175078;28;20183;-96
2022/08/22 07:13:07;;;;;;;16.65;3.13;;;21.20;99.90;;;;;;4181554;28;20175;-96
2022/08/22 07:15:35;;;;;;;17.13;3.42;;;21.50;99.90;;;;;;4161214;28;20195;-96
2022/08/22 07:17:48;;;;;;;14.95;3.25;;;21.80;99.90;;;;;;4157067;28;20293;-96
2022/08/22 07:20:17;;;;;;;15.50;3.47;;;22.00;99.90;;;;;;4173460;28;20263;-96
2022/08/22 07:22:31;;;;;;;19.17;3.55;;;22.20;99.90;;;;;;4162299;28;20181;-96
2022/08/22 07:24:32;;;;;;;15.70;3.30;;;22.40;99.90;;;;;;4146997;28;20177;-96
2022/08/22 07:26:47;;;;;;;15.52;3.50;;;22.60;99.90;;;;;;4165019;28;20203;-96
2022/08/22 07:28:50;;;;;;;15.80;3.05;;;22.90;99.90;;;;;;4152127;28;20205;-96
2022/08/22 07:30:53;;;;;;;14.90;3.42;;;22.80;99.90;;;;;;4177374;28;20235;-96
2022/08/22 07:33:06;;;;;;;20.17;3.00;;;22.50;99.90;;;;;;4165722;28;20161;-96
2022/08/22 07:35:20;;;;;;;13.93;3.25;;;22.30;99.90;;;;;;4162456;28;20629;-96
2022/08/22 07:38:06;;;;;;;15.13;3.17;;;22.30;99.90;;;;;;4162575;28;20169;-96
2022/08/22 07:40:20;;;;;;;17.40;3.05;;;22.30;99.90;;;;;;4160808;28;20205;-96
2022/08/22 07:42:29;;;;;;;9.63;2.80;;;22.10;99.90;;;;;;4156286;28;20183;-94
2022/08/22 07:45:19;;;;;;;13.43;3.42;;;21.90;99.90;;;;;;4152416;28;20177;-94
2022/08/22 07:47:23;;;;;;;18.83;3.70;;;22.20;99.90;;;;;;4166034;28;20176;-94
2022/08/22 07:49:30;;;;;;;12.77;3.60;;;22.00;99.90;;;;;;4173926;28;20208;-93
2022/08/22 07:51:43;;;;;;;14.68;3.38;;;22.00;99.90;;;;;;4167731;28;20160;-93
2022/08/22 07:53:55;;;;;;;13.43;3.40;;;22.20;99.90;;;;;;4184805;28;20250;-94
2022/08/22 07:56:00;;;;;;;14.63;3.55;;;22.00;99.90;;;;;;4167498;28;20230;-95
2022/08/22 07:58:06;;;;;;;15.55;3.38;;;22.10;99.90;;;;;;4151145;28;20270;-94
2022/08/22 08:00:19;;;;;;;12.93;3.13;;;22.60;99.90;;;;;;4151951;28;20184;-93
2022/08/22 08:02:22;;;;;;;21.77;3.42;;;23.10;99.90;;;;;;4167968;28;20176;-95
2022/08/22 08:04:28;;;;;;;10.77;2.78;;;23.60;99.90;;;;;;4151233;28;20177;-93
2022/08/22 08:06:30;;;;;;;20.52;3.50;;;23.90;99.90;;;;;;4151480;28;20205;-93
2022/08/22 08:08:38;;;;;;;10.63;3.30;;;24.00;99.90;;;;;;4149728;28;20208;-95
2022/08/22 08:10:39;;;;;;;9.93;2.67;;;24.40;99.90;;;;;;4149339;28;20200;-95
2022/08/22 08:12:46;;;;;;;9.40;2.88;;;24.60;99.90;;;;;;4149497;28;20214;-94
2022/08/22 08:14:52;;;;;;;13.43;3.20;;;24.20;99.90;;;;;;4149429;28;20232;-95
2022/08/22 08:17:02;;;;;;;14.35;2.90;;;24.00;99.90;;;;;;4150807;28;20168;-94
2022/08/22 08:19:02;;;;;;;14.82;3.60;;;23.80;99.90;;;;;;4150355;28;20196;-94
2022/08/22 08:21:13;;;;;;;10.18;2.78;;;23.70;99.90;;;;;;4166750;28;20576;-95
2022/08/22 08:23:18;;;;;;;13.50;2.78;;;24.00;99.90;;;;;;4183728;28;20175;-94
2022/08/22 08:25:24;;;;;;;16.77;3.40;;;23.90;99.90;;;;;;4150798;28;20188;-95
2022/08/22 08:30:03;;;;;;;11.63;2.85;;;24.10;99.90;;;;;;4183177;28;20203;-96
2022/08/22 08:32:08;;;;;;;12.15;3.00;;;24.50;99.90;;;;;;4166979;28;20176;-95
2022/08/22 08:34:21;;;;;;;11.73;2.83;;;24.50;99.90;;;;;;4149586;28;20189;-93
2022/08/22 08:36:43;;;;;;;13.32;2.70;;;24.80;99.90;;;;;;4150504;28;20238;-94
2022/08/22 08:38:56;;;;;;;10.23;2.60;;;25.00;99.90;;;;;;4150922;28;20208;-94
2022/08/22 08:41:37;;;;;;;8.60;2.40;;;25.50;99.90;;;;;;4150453;28;20211;-95
2022/08/22 08:44:04;;;;;;;15.43;3.17;;;26.30;99.90;;;;;;4166702;28;20172;-93
2022/08/22 08:46:23;;;;;;;7.13;2.20;;;27.10;99.90;;;;;;4169908;28;20173;-93
2022/08/22 08:48:56;;;;;;;7.85;2.10;;;27.80;99.90;;;;;;4152523;28;20204;-95
2022/08/22 08:51:09;;;;;;;8.63;2.10;;;27.50;99.90;;;;;;4150262;28;20177;-95
2022/08/22 08:53:28;;;;;;;9.35;2.20;;;26.70;99.90;;;;;;4148501;28;20207;-95
2022/08/22 08:55:50;;;;;;;9.15;2.22;;;26.50;99.90;;;;;;4149456;28;20239;-95
2022/08/22 08:58:12;;;;;;;8.73;2.28;;;26.90;99.90;;;;;;4149151;28;20193;-94
2022/08/22 09:00:47;;;;;;;9.32;2.25;;;27.50;99.90;;;;;;4148714;28;20205;-94
2022/08/22 09:03:17;;;;;;;7.30;2.58;;;28.00;99.90;;;;;;4149025;28;20176;-94
2022/08/22 09:05:53;;;;;;;11.25;2.20;;;29.10;99.90;;;;;;4148819;28;20201;-95
2022/08/22 09:08:15;;;;;;;9.25;2.30;;;30.30;99.90;;;;;;4148403;28;20192;-93
2022/08/22 09:11:00;;;;;;;10.75;2.60;;;31.10;99.90;;;;;;4148505;28;20184;-93
2022/08/22 09:13:19;;;;;;;10.38;2.22;;;30.60;99.90;;;;;;4148576;28;20636;-93
2022/08/22 09:15:40;;;;;;;13.93;2.75;;;29.90;99.90;;;;;;4165132;28;20210;-95
2022/08/22 09:18:30;;;;;;;12.43;2.60;;;29.80;99.90;;;;;;4165201;28;20628;-93
2022/08/22 09:21:07;;;;;;;9.75;2.50;;;30.20;99.90;;;;;;4149193;28;20220;-93
2022/08/22 09:23:34;;;;;;;9.63;2.20;;;30.50;99.90;;;;;;4148461;28;20181;-93
2022/08/22 09:25:47;;;;;;;13.05;2.63;;;30.20;99.90;;;;;;4148356;28;20230;-92
2022/08/22 09:27:58;;;;;;;10.80;1.98;;;29.60;99.90;;;;;;4148532;28;20267;-94
2022/08/22 09:30:12;;;;;;;8.95;2.20;;;28.80;99.90;;;;;;4148361;28;20168;-93
2022/08/22 09:32:27;;;;;;;15.20;2.88;;;29.40;99.90;;;;;;4148446;28;20177;-93
2022/08/22 09:34:34;;;;;;;13.00;2.35;;;30.00;99.90;;;;;;4148376;28;20628;-93
2022/08/22 09:36:53;;;;;;;9.48;1.98;;;29.50;99.90;;;;;;4148271;28;20176;-92
2022/08/22 09:39:01;;;;;;;8.40;1.85;;;29.40;99.90;;;;;;4148090;28;20236;-92
2022/08/22 09:41:23;;;;;;;11.35;2.30;;;28.90;99.90;;;;;;4148335;28;20208;-93
2022/08/22 09:43:46;;;;;;;13.27;2.40;;;28.90;99.90;;;;;;4164650;28;20180;-91
2022/08/22 09:46:04;;;;;;;12.63;2.10;;;28.80;99.90;;;;;;4148267;28;20260;-92
2022/08/22 09:48:23;;;;;;;8.93;1.90;;;28.20;99.90;;;;;;4164362;28;20180;-92
2022/08/22 09:50:50;;;;;;;15.30;2.03;;;27.60;99.90;;;;;;4148248;28;20188;-93
2022/08/22 09:53:12;;;;;;;11.43;2.58;;;27.60;99.90;;;;;;4164816;28;20177;-93
2022/08/22 09:55:34;;;;;;;7.50;1.80;;;27.90;99.90;;;;;;4148171;28;20657;-93
2022/08/22 09:57:58;;;;;;;9.88;1.42;;;28.30;99.90;;;;;;4164467;28;20179;-92
2022/08/22 10:00:09;;;;;;;11.10;2.03;;;28.80;99.90;;;;;;4148037;28;20180;-93
2022/08/22 10:02:29;;;;;;;11.73;2.05;;;28.90;99.90;;;;;;4164820;28;20184;-92
2022/08/22 10:05:02;;;;;;;12.27;1.90;;;29.10;99.90;;;;;;4164491;28;20551;-92
2022/08/22 10:07:11;;;;;;;7.10;1.50;;;29.00;99.90;;;;;;4151095;28;20596;-91
2022/08/22 10:09:23;;;;;;;13.85;2.00;;;29.70;99.90;;;;;;4150855;28;20223;-92
2022/08/22 10:11:33;;;;;;;9.25;1.85;;;29.70;99.90;;;;;;4150968;28;20181;-92
2022/08/22 10:13:49;;;;;;;10.27;1.85;;;29.30;99.90;;;;;;4150995;28;20177;-93
2022/08/22 10:16:22;;;;;;;8.05;1.70;;;28.40;99.90;;;;;;4167413;28;20179;-93
2022/08/22 10:18:43;;;;;;;8.57;1.90;;;27.80;99.90;;;;;;4140024;28;20208;-92
2022/08/22 10:21:13;;;;;;;9.98;2.00;;;27.70;99.90;;;;;;4167040;28;20342;-92
2022/08/22 10:23:25;;;;;;;10.05;1.60;;;26.90;99.90;;;;;;4150411;28;20212;-90
2022/08/22 10:25:32;;;;;;;8.70;2.22;;;26.80;99.90;;;;;;4150945;28;20177;-92
2022/08/22 10:27:35;;;;;;;7.38;1.90;;;26.40;99.90;;;;;;4151004;28;20193;-91
2022/08/22 10:29:44;;;;;;;4.35;1.48;;;26.30;99.90;;;;;;4167253;28;20272;-91
2022/08/22 10:31:54;;;;;;;11.80;2.00;;;26.10;99.90;;;;;;4167355;28;20261;-91
2022/08/22 10:34:16;;;;;;;9.13;1.73;;;26.20;99.90;;;;;;4150709;28;20180;-92
2022/08/22 10:36:39;;;;;;;7.78;1.80;;;26.60;99.90;;;;;;4150681;28;20178;-92
2022/08/22 10:38:53;;;;;;;7.75;1.60;;;26.70;99.90;;;;;;4150257;28;20204;-92
2022/08/22 10:41:18;;;;;;;6.50;1.58;;;27.00;99.90;;;;;;4150684;28;20247;-93
2022/08/22 10:43:37;;;;;;;8.00;1.65;;;27.20;99.90;;;;;;4150772;28;20212;-92
2022/08/22 10:45:43;;;;;;;6.68;1.63;;;27.30;99.90;;;;;;4151085;28;20200;-90
2022/08/22 10:48:04;;;;;;;9.93;1.73;;;27.60;99.90;;;;;;4151072;28;20175;-91
2022/08/22 10:50:19;;;;;;;6.05;1.58;;;27.50;99.90;;;;;;4146944;28;20197;-93
2022/08/22 10:54:50;;;;;;;5.90;1.50;;;27.20;99.90;;;;;;4134248;28;20178;-92
2022/08/22 10:57:32;;;;;;;4.80;1.40;;;27.20;99.90;;;;;;4150248;28;20715;-92
2022/08/22 10:59:45;;;;;;;7.15;1.50;;;27.40;99.90;;;;;;4137180;28;20707;-92
2022/08/22 11:02:19;;;;;;;6.78;1.40;;;27.70;99.90;;;;;;4150432;28;20211;-92
2022/08/22 11:04:33;;;;;;;5.63;1.27;;;27.70;99.90;;;;;;4166600;28;20179;-91
2022/08/22 11:07:08;;;;;;;8.77;1.73;;;27.90;99.90;;;;;;4150466;28;20633;-92
2022/08/22 11:09:37;;;;;;;7.70;1.50;;;27.50;99.90;;;;;;4150450;28;20699;-91
2022/08/22 11:11:41;;;;;;;6.70;1.70;;;27.30;99.90;;;;;;4177840;22;20261;-94
2022/08/22 11:13:44;;;;;;;8.57;1.65;;;27.50;99.90;;;;;;4166584;28;20176;-93
2022/08/22 11:16:32;;;;;;;11.88;1.65;;;27.50;99.90;;;;;;4166162;28;20168;-95
2022/08/22 11:18:58;;;;;;;6.82;1.42;;;27.50;99.90;;;;;;4158915;28;20213;-96
2022/08/22 11:21:09;;;;;;;6.43;1.35;;;27.60;99.90;;;;;;4165912;28;20253;-93
2022/08/22 11:23:22;;;;;;;5.10;1.30;;;28.40;99.90;;;;;;4166545;28;20168;-95
2022/08/22 11:25:48;;;;;;;4.85;1.63;;;28.10;99.90;;;;;;4166886;28;20175;-94
2022/08/22 11:28:03;;;;;;;7.63;1.60;;;28.10;99.90;;;;;;4182711;28;20234;-92
2022/08/22 11:30:12;;;;;;;4.85;1.70;;;27.90;99.90;;;;;;4165990;28;20226;-95
2022/08/22 11:32:34;;;;;;;6.05;1.60;;;27.50;99.90;;;;;;4182800;28;20171;-93
2022/08/22 11:35:07;;;;;;;5.55;1.48;;;27.90;99.90;;;;;;4166080;28;20207;-94
2022/08/22 11:37:27;;;;;;;4.97;1.30;;;28.30;99.90;;;;;;4166566;28;20180;-95
2022/08/22 11:39:47;;;;;;;6.43;1.65;;;28.60;99.90;;;;;;4165886;28;20214;-94
2022/08/22 11:42:30;;;;;;;7.93;1.52;;;28.60;99.90;;;;;;4165815;28;20216;-94
2022/08/22 11:44:37;;;;;;;8.25;1.52;;;29.10;99.90;;;;;;4182244;28;20172;-93
2022/08/22 11:46:48;;;;;;;6.93;1.60;;;29.20;99.90;;;;;;4165674;28;20339;-93